Terminal Aerodrome Forecast
Issued by NWS Cleveland, OH

Home | Current Version | Previous Version | Text Only | Print | Product List | Glossary On
Versions: 1 2 3 4 5 6 7 8 9 10 11 12 13 14 15 16 17 18 19 20
000
FTUS41 KCLE 311100
TAFERI
TAF
KERI 311140Z 3112/0112 21005KT P6SM VCSH SCT025 BKN080
     FM311400 23006KT P6SM SCT035 BKN070
     FM311800 26009KT P6SM SCT045
     FM010100 18004KT P6SM SCT050
     FM010900 18007KT P6SM VCSH BKN050=

USA.gov is the U.S. government's official web portal to all federal, state and local government web resources and services.